sensor_id;sensor_type;location;lat;lon;timestamp;pressure;altitude;pressure_sealevel;temperature;humidity
13456;BME280;6800;50.940;6.940;2023-09-30T00:02:57;101743.00;;;19.93;63.73
13456;BME280;6800;50.940;6.940;2023-09-30T00:06:58;101756.84;;;19.96;63.35
13456;BME280;6800;50.940;6.940;2023-09-30T00:11:00;101761.44;;;19.94;63.43
13456;BME280;6800;50.940;6.940;2023-09-30T00:15:02;101771.78;;;19.75;63.74
13456;BME280;6800;50.940;6.940;2023-09-30T00:19:05;101787.22;;;19.92;63.66
13456;BME280;6800;50.940;6.940;2023-09-30T00:23:07;101792.88;;;19.88;63.71
13456;BME280;6800;50.940;6.940;2023-09-30T00:27:08;101783.59;;;19.82;64.40
13456;BME280;6800;50.940;6.940;2023-09-30T00:31:10;101784.56;;;19.92;63.60
13456;BME280;6800;50.940;6.940;2023-09-30T00:35:11;101768.66;;;19.81;64.06
13456;BME280;6800;50.940;6.940;2023-09-30T00:39:13;101771.66;;;19.88;64.08
13456;BME280;6800;50.940;6.940;2023-09-30T00:43:20;101775.31;;;19.87;64.12
13456;BME280;6800;50.940;6.940;2023-09-30T00:47:22;101773.97;;;19.92;63.73
13456;BME280;6800;50.940;6.940;2023-09-30T00:51:28;101772.19;;;20.04;63.99
13456;BME280;6800;50.940;6.940;2023-09-30T00:55:30;101783.63;;;20.27;62.81
13456;BME280;6800;50.940;6.940;2023-09-30T00:59:37;101789.50;;;20.19;63.10
13456;BME280;6800;50.940;6.940;2023-09-30T01:03:56;101784.31;;;20.17;63.13
13456;BME280;6800;50.940;6.940;2023-09-30T01:08:02;101786.66;;;20.22;62.86
13456;BME280;6800;50.940;6.940;2023-09-30T01:12:04;101777.97;;;20.20;63.08
13456;BME280;6800;50.940;6.940;2023-09-30T01:16:07;101783.88;;;20.12;62.76
13456;BME280;6800;50.940;6.940;2023-09-30T01:20:13;101789.88;;;20.14;63.32
13456;BME280;6800;50.940;6.940;2023-09-30T01:24:17;101785.03;;;20.08;63.22
13456;BME280;6800;50.940;6.940;2023-09-30T01:28:19;101789.63;;;20.06;63.47
13456;BME280;6800;50.940;6.940;2023-09-30T01:32:21;101774.06;;;20.13;63.24
13456;BME280;6800;50.940;6.940;2023-09-30T01:36:23;101796.13;;;20.13;62.95
13456;BME280;6800;50.940;6.940;2023-09-30T01:40:25;101796.03;;;20.26;62.45
13456;BME280;6800;50.940;6.940;2023-09-30T01:44:26;101804.97;;;20.25;62.60
13456;BME280;6800;50.940;6.940;2023-09-30T01:48:28;101814.97;;;20.21;62.70
13456;BME280;6800;50.940;6.940;2023-09-30T01:52:30;101790.13;;;20.11;62.87
13456;BME280;6800;50.940;6.940;2023-09-30T01:56:31;101790.25;;;20.21;62.28
13456;BME280;6800;50.940;6.940;2023-09-30T02:00:33;101807.09;;;20.09;62.47
13456;BME280;6800;50.940;6.940;2023-09-30T02:04:36;101819.28;;;20.00;62.28
13456;BME280;6800;50.940;6.940;2023-09-30T02:08:38;101812.66;;;19.95;62.62
13456;BME280;6800;50.940;6.940;2023-09-30T02:12:39;101810.34;;;19.90;62.68
13456;BME280;6800;50.940;6.940;2023-09-30T02:16:40;101809.63;;;19.88;62.57
13456;BME280;6800;50.940;6.940;2023-09-30T02:20:42;101806.47;;;19.83;62.81
13456;BME280;6800;50.940;6.940;2023-09-30T02:24:43;101802.88;;;19.84;62.46
13456;BME280;6800;50.940;6.940;2023-09-30T02:28:45;101815.06;;;19.87;62.91
13456;BME280;6800;50.940;6.940;2023-09-30T02:32:46;101818.75;;;19.73;63.28
13456;BME280;6800;50.940;6.940;2023-09-30T02:36:48;101813.22;;;19.87;62.57
13456;BME280;6800;50.940;6.940;2023-09-30T02:40:50;101807.81;;;19.78;63.61
13456;BME280;6800;50.940;6.940;2023-09-30T02:44:52;101809.72;;;19.76;63.17
13456;BME280;6800;50.940;6.940;2023-09-30T02:48:54;101802.97;;;19.72;63.37
13456;BME280;6800;50.940;6.940;2023-09-30T02:52:55;101800.94;;;19.75;63.38
13456;BME280;6800;50.940;6.940;2023-09-30T02:56:57;101821.41;;;19.73;62.84
13456;BME280;6800;50.940;6.940;2023-09-30T03:00:59;101831.41;;;19.70;63.07
13456;BME280;6800;50.940;6.940;2023-09-30T03:05:01;101824.88;;;19.63;63.51
13456;BME280;6800;50.940;6.940;2023-09-30T03:09:05;101815.69;;;19.56;63.65
13456;BME280;6800;50.940;6.940;2023-09-30T03:13:07;101814.97;;;19.54;64.06
13456;BME280;6800;50.940;6.940;2023-09-30T03:17:10;101819.78;;;19.60;63.60
13456;BME280;6800;50.940;6.940;2023-09-30T03:21:14;101818.13;;;19.59;64.02
13456;BME280;6800;50.940;6.940;2023-09-30T03:25:17;101820.91;;;19.57;63.86
13456;BME280;6800;50.940;6.940;2023-09-30T03:29:19;101822.44;;;19.49;64.10
13456;BME280;6800;50.940;6.940;2023-09-30T03:33:20;101832.31;;;19.47;64.18
13456;BME280;6800;50.940;6.940;2023-09-30T03:37:22;101814.75;;;19.33;64.67
13456;BME280;6800;50.940;6.940;2023-09-30T03:41:23;101822.72;;;19.33;64.72
13456;BME280;6800;50.940;6.940;2023-09-30T03:45:24;101815.31;;;19.49;63.86
13456;BME280;6800;50.940;6.940;2023-09-30T03:49:28;101810.06;;;19.60;63.96
13456;BME280;6800;50.940;6.940;2023-09-30T03:53:29;101811.03;;;19.70;63.23
13456;BME280;6800;50.940;6.940;2023-09-30T03:57:32;101808.22;;;19.50;64.10
13456;BME280;6800;50.940;6.940;2023-09-30T04:01:34;101805.09;;;19.56;63.69
13456;BME280;6800;50.940;6.940;2023-09-30T04:05:36;101808.34;;;19.48;63.97
13456;BME280;6800;50.940;6.940;2023-09-30T04:09:38;101804.72;;;19.38;64.55
13456;BME280;6800;50.940;6.940;2023-09-30T04:13:39;101796.16;;;19.45;64.25
13456;BME280;6800;50.940;6.940;2023-09-30T04:17:41;101801.53;;;19.33;64.49
13456;BME280;6800;50.940;6.940;2023-09-30T04:21:42;101807.09;;;19.41;64.50
13456;BME280;6800;50.940;6.940;2023-09-30T04:25:44;101809.59;;;19.31;64.30
13456;BME280;6800;50.940;6.940;2023-09-30T04:29:45;101807.56;;;19.35;64.72
13456;BME280;6800;50.940;6.940;2023-09-30T04:33:48;101799.16;;;19.41;64.52
13456;BME280;6800;50.940;6.940;2023-09-30T04:37:49;101796.91;;;19.24;64.93
13456;BME280;6800;50.940;6.940;2023-09-30T04:41:52;101809.19;;;19.25;64.63
13456;BME280;6800;50.940;6.940;2023-09-30T04:45:54;101821.31;;;19.16;64.79
13456;BME280;6800;50.940;6.940;2023-09-30T04:49:58;101830.59;;;19.22;64.87
13456;BME280;6800;50.940;6.940;2023-09-30T04:53:59;101842.78;;;19.24;64.74
13456;BME280;6800;50.940;6.940;2023-09-30T04:58:01;101847.59;;;19.07;65.87
13456;BME280;6800;50.940;6.940;2023-09-30T05:02:02;101848.13;;;19.12;65.30
13456;BME280;6800;50.940;6.940;2023-09-30T05:06:04;101845.28;;;19.15;65.23
13456;BME280;6800;50.940;6.940;2023-09-30T05:10:07;101827.94;;;19.22;65.37
13456;BME280;6800;50.940;6.940;2023-09-30T05:14:14;101829.38;;;19.15;65.26
13456;BME280;6800;50.940;6.940;2023-09-30T05:18:15;101843.84;;;19.22;64.77
13456;BME280;6800;50.940;6.940;2023-09-30T05:22:17;101845.03;;;19.18;65.28
13456;BME280;6800;50.940;6.940;2023-09-30T05:26:23;101847.13;;;19.02;65.55
13456;BME280;6800;50.940;6.940;2023-09-30T05:30:24;101845.53;;;18.99;65.95
13456;BME280;6800;50.940;6.940;2023-09-30T05:34:26;101854.41;;;18.98;65.99
13456;BME280;6800;50.940;6.940;2023-09-30T05:38:29;101858.59;;;19.13;65.47
13456;BME280;6800;50.940;6.940;2023-09-30T05:42:32;101868.78;;;19.07;65.76
13456;BME280;6800;50.940;6.940;2023-09-30T05:46:34;101864.34;;;19.07;64.89
13456;BME280;6800;50.940;6.940;2023-09-30T05:50:35;101868.78;;;19.07;64.98
13456;BME280;6800;50.940;6.940;2023-09-30T05:54:38;101864.41;;;19.18;65.05
13456;BME280;6800;50.940;6.940;2023-09-30T05:58:39;101855.97;;;19.37;64.80
13456;BME280;6800;50.940;6.940;2023-09-30T06:02:42;101865.72;;;19.36;64.79
13456;BME280;6800;50.940;6.940;2023-09-30T06:06:44;101861.44;;;19.47;64.43
13456;BME280;6800;50.940;6.940;2023-09-30T06:10:45;101867.22;;;19.52;64.27
13456;BME280;6800;50.940;6.940;2023-09-30T06:14:47;101881.09;;;19.55;64.82
13456;BME280;6800;50.940;6.940;2023-09-30T06:18:48;101882.94;;;19.77;63.74
13456;BME280;6800;50.940;6.940;2023-09-30T06:22:50;101871.25;;;19.68;64.38
13456;BME280;6800;50.940;6.940;2023-09-30T06:26:52;101873.16;;;19.66;63.73
13456;BME280;6800;50.940;6.940;2023-09-30T06:30:53;101875.84;;;19.77;63.52
13456;BME280;6800;50.940;6.940;2023-09-30T06:34:54;101876.22;;;19.84;63.47
13456;BME280;6800;50.940;6.940;2023-09-30T06:38:56;101884.31;;;19.82;63.46
13456;BME280;6800;50.940;6.940;2023-09-30T06:42:57;101883.06;;;19.75;62.84
13456;BME280;6800;50.940;6.940;2023-09-30T06:46:59;101889.00;;;19.90;63.06
13456;BME280;6800;50.940;6.940;2023-09-30T06:51:01;101893.00;;;19.84;62.60
13456;BME280;6800;50.940;6.940;2023-09-30T06:55:03;101892.25;;;19.82;62.61
13456;BME280;6800;50.940;6.940;2023-09-30T06:59:07;101897.72;;;20.03;61.93
13456;BME280;6800;50.940;6.940;2023-09-30T07:03:09;101911.09;;;20.01;62.05
13456;BME280;6800;50.940;6.940;2023-09-30T07:07:12;101911.69;;;20.05;61.55
13456;BME280;6800;50.940;6.940;2023-09-30T07:11:13;101899.72;;;20.34;60.76
13456;BME280;6800;50.940;6.940;2023-09-30T07:15:14;101890.91;;;20.56;60.79
13456;BME280;6800;50.940;6.940;2023-09-30T07:19:16;101910.72;;;20.63;59.79
13456;BME280;6800;50.940;6.940;2023-09-30T07:23:19;101907.38;;;21.15;58.89
13456;BME280;6800;50.940;6.940;2023-09-30T07:27:21;101906.03;;;21.31;57.70
13456;BME280;6800;50.940;6.940;2023-09-30T07:31:33;101915.28;;;21.68;56.51
13456;BME280;6800;50.940;6.940;2023-09-30T07:35:37;101915.72;;;22.56;54.82
13456;BME280;6800;50.940;6.940;2023-09-30T07:39:40;101932.31;;;22.69;53.38
13456;BME280;6800;50.940;6.940;2023-09-30T07:43:42;101946.59;;;22.98;53.51
13456;BME280;6800;50.940;6.940;2023-09-30T07:47:44;101950.69;;;23.12;51.90
13456;BME280;6800;50.940;6.940;2023-09-30T07:51:47;101949.53;;;23.83;51.12
13456;BME280;6800;50.940;6.940;2023-09-30T07:55:49;101945.16;;;24.01;51.76
13456;BME280;6800;50.940;6.940;2023-09-30T07:59:50;101942.28;;;24.41;50.26
13456;BME280;6800;50.940;6.940;2023-09-30T08:03:52;101924.88;;;25.28;46.33
13456;BME280;6800;50.940;6.940;2023-09-30T08:07:53;101933.50;;;25.39;46.47
13456;BME280;6800;50.940;6.940;2023-09-30T08:11:55;101935.28;;;25.66;46.06
13456;BME280;6800;50.940;6.940;2023-09-30T08:15:57;101958.66;;;25.99;44.72
13456;BME280;6800;50.940;6.940;2023-09-30T08:19:59;101966.47;;;25.75;44.95
13456;BME280;6800;50.940;6.940;2023-09-30T08:24:02;101963.38;;;26.49;43.32
13456;BME280;6800;50.940;6.940;2023-09-30T08:28:04;101960.06;;;26.55;42.85
13456;BME280;6800;50.940;6.940;2023-09-30T08:32:05;101968.56;;;27.26;41.87
13456;BME280;6800;50.940;6.940;2023-09-30T08:36:08;101979.59;;;27.64;39.12
13456;BME280;6800;50.940;6.940;2023-09-30T08:40:11;101967.16;;;28.36;39.53
13456;BME280;6800;50.940;6.940;2023-09-30T08:44:13;101955.09;;;28.87;37.29
13456;BME280;6800;50.940;6.940;2023-09-30T08:48:15;101967.97;;;29.15;36.26
13456;BME280;6800;50.940;6.940;2023-09-30T08:52:16;101968.56;;;29.79;36.35
13456;BME280;6800;50.940;6.940;2023-09-30T08:56:20;101966.44;;;29.13;37.72
13456;BME280;6800;50.940;6.940;2023-09-30T09:00:25;101952.75;;;29.53;37.63
13456;BME280;6800;50.940;6.940;2023-09-30T09:04:27;101951.44;;;29.49;36.13
13456;BME280;6800;50.940;6.940;2023-09-30T09:08:29;101938.72;;;30.55;34.93
13456;BME280;6800;50.940;6.940;2023-09-30T09:12:30;101935.84;;;30.04;35.95
13456;BME280;6800;50.940;6.940;2023-09-30T09:16:31;101932.03;;;29.99;35.84
13456;BME280;6800;50.940;6.940;2023-09-30T09:20:33;101940.28;;;30.93;32.98
13456;BME280;6800;50.940;6.940;2023-09-30T09:24:39;101931.03;;;31.80;32.70
13456;BME280;6800;50.940;6.940;2023-09-30T09:28:40;101930.03;;;31.24;33.73
13456;BME280;6800;50.940;6.940;2023-09-30T09:32:55;101920.03;;;33.12;30.53
13456;BME280;6800;50.940;6.940;2023-09-30T09:36:59;101917.34;;;31.61;32.43
13456;BME280;6800;50.940;6.940;2023-09-30T09:41:00;101907.31;;;33.06;30.37
13456;BME280;6800;50.940;6.940;2023-09-30T09:45:03;101917.41;;;33.97;29.08
13456;BME280;6800;50.940;6.940;2023-09-30T09:49:06;101913.63;;;33.39;28.90
13456;BME280;6800;50.940;6.940;2023-09-30T09:53:08;101925.34;;;33.79;29.47
13456;BME280;6800;50.940;6.940;2023-09-30T09:57:10;101922.31;;;33.15;29.28
13456;BME280;6800;50.940;6.940;2023-09-30T10:01:12;101923.84;;;32.83;29.96
13456;BME280;6800;50.940;6.940;2023-09-30T10:05:15;101937.97;;;32.10;31.07
13456;BME280;6800;50.940;6.940;2023-09-30T10:09:17;101930.13;;;32.90;30.77
13456;BME280;6800;50.940;6.940;2023-09-30T10:18:15;101929.84;;;32.38;30.16
13456;BME280;6800;50.940;6.940;2023-09-30T10:26:19;101946.72;;;33.35;29.25
13456;BME280;6800;50.940;6.940;2023-09-30T10:30:23;101936.41;;;33.77;28.80
13456;BME280;6800;50.940;6.940;2023-09-30T10:34:25;101938.16;;;35.57;26.32
13456;BME280;6800;50.940;6.940;2023-09-30T10:42:45;101933.38;;;29.58;33.44
13456;BME280;6800;50.940;6.940;2023-09-30T10:46:47;101939.63;;;28.97;34.73
13456;BME280;6800;50.940;6.940;2023-09-30T10:50:50;101940.28;;;29.52;34.35
13456;BME280;6800;50.940;6.940;2023-09-30T10:54:52;101937.22;;;28.63;34.18
13456;BME280;6800;50.940;6.940;2023-09-30T10:58:54;101953.06;;;28.34;35.21
13456;BME280;6800;50.940;6.940;2023-09-30T11:02:57;101959.16;;;28.20;35.12
13456;BME280;6800;50.940;6.940;2023-09-30T11:07:03;101952.75;;;28.37;34.66
13456;BME280;6800;50.940;6.940;2023-09-30T11:11:04;101952.44;;;27.67;36.29
13456;BME280;6800;50.940;6.940;2023-09-30T11:15:06;101936.34;;;27.67;35.86
13456;BME280;6800;50.940;6.940;2023-09-30T11:19:14;101928.16;;;27.11;37.07
13456;BME280;6800;50.940;6.940;2023-09-30T11:23:16;101929.28;;;27.00;36.21
13456;BME280;6800;50.940;6.940;2023-09-30T11:27:26;101914.63;;;26.79;36.92
13456;BME280;6800;50.940;6.940;2023-09-30T11:31:28;101917.94;;;26.13;37.62
13456;BME280;6800;50.940;6.940;2023-09-30T11:35:35;101915.84;;;26.51;36.99
13456;BME280;6800;50.940;6.940;2023-09-30T11:39:36;101916.09;;;26.40;36.50
13456;BME280;6800;50.940;6.940;2023-09-30T11:43:37;101914.50;;;26.88;36.36
13456;BME280;6800;50.940;6.940;2023-09-30T11:47:40;101909.34;;;26.95;35.92
13456;BME280;6800;50.940;6.940;2023-09-30T11:51:42;101904.06;;;27.27;35.47
13456;BME280;6800;50.940;6.940;2023-09-30T11:55:47;101905.28;;;28.05;33.91
13456;BME280;6800;50.940;6.940;2023-09-30T11:59:48;101890.09;;;29.82;31.33
13456;BME280;6800;50.940;6.940;2023-09-30T12:03:50;101886.13;;;29.70;31.98
13456;BME280;6800;50.940;6.940;2023-09-30T12:07:55;101876.44;;;29.23;32.19
13456;BME280;6800;50.940;6.940;2023-09-30T12:12:00;101879.97;;;27.35;35.20
13456;BME280;6800;50.940;6.940;2023-09-30T12:16:02;101883.38;;;26.62;36.83
13456;BME280;6800;50.940;6.940;2023-09-30T12:20:05;101879.03;;;25.58;38.09
13456;BME280;6800;50.940;6.940;2023-09-30T12:24:08;101859.25;;;26.20;36.43
13456;BME280;6800;50.940;6.940;2023-09-30T12:28:10;101852.56;;;26.24;36.82
13456;BME280;6800;50.940;6.940;2023-09-30T12:32:11;101837.81;;;26.54;34.78
13456;BME280;6800;50.940;6.940;2023-09-30T12:36:13;101824.88;;;26.41;35.00
13456;BME280;6800;50.940;6.940;2023-09-30T12:40:14;101838.63;;;26.88;35.16
13456;BME280;6800;50.940;6.940;2023-09-30T12:44:18;101855.00;;;26.77;34.88
13456;BME280;6800;50.940;6.940;2023-09-30T12:48:20;101855.19;;;26.83;34.69
13456;BME280;6800;50.940;6.940;2023-09-30T12:52:21;101846.44;;;26.73;34.79
13456;BME280;6800;50.940;6.940;2023-09-30T12:56:24;101849.13;;;24.92;38.22
13456;BME280;6800;50.940;6.940;2023-09-30T13:00:26;101860.13;;;26.28;35.45
13456;BME280;6800;50.940;6.940;2023-09-30T13:04:28;101859.34;;;25.85;36.03
13456;BME280;6800;50.940;6.940;2023-09-30T13:08:29;101858.03;;;26.40;35.24
13456;BME280;6800;50.940;6.940;2023-09-30T13:12:35;101849.19;;;26.14;36.00
13456;BME280;6800;50.940;6.940;2023-09-30T13:16:36;101842.56;;;26.34;35.65
13456;BME280;6800;50.940;6.940;2023-09-30T13:20:38;101841.69;;;26.25;35.56
13456;BME280;6800;50.940;6.940;2023-09-30T13:24:40;101844.63;;;26.40;35.65
13456;BME280;6800;50.940;6.940;2023-09-30T13:28:43;101839.34;;;26.64;35.25
13456;BME280;6800;50.940;6.940;2023-09-30T13:32:45;101835.69;;;26.65;34.83
13456;BME280;6800;50.940;6.940;2023-09-30T13:36:46;101832.19;;;26.05;35.99
13456;BME280;6800;50.940;6.940;2023-09-30T13:40:47;101832.31;;;26.21;35.42
13456;BME280;6800;50.940;6.940;2023-09-30T13:44:49;101822.09;;;26.59;34.44
13456;BME280;6800;50.940;6.940;2023-09-30T13:48:50;101811.66;;;26.40;34.72
13456;BME280;6800;50.940;6.940;2023-09-30T13:52:53;101808.47;;;26.86;34.43
13456;BME280;6800;50.940;6.940;2023-09-30T13:56:55;101800.38;;;26.02;35.98
13456;BME280;6800;50.940;6.940;2023-09-30T14:00:56;101799.44;;;26.53;35.34
13456;BME280;6800;50.940;6.940;2023-09-30T14:04:58;101792.53;;;26.76;35.21
13456;BME280;6800;50.940;6.940;2023-09-30T14:09:00;101791.88;;;26.82;34.59
13456;BME280;6800;50.940;6.940;2023-09-30T14:13:01;101789.19;;;26.33;33.71
13456;BME280;6800;50.940;6.940;2023-09-30T14:17:03;101786.97;;;26.70;33.18
13456;BME280;6800;50.940;6.940;2023-09-30T14:21:11;101780.97;;;26.84;33.03
13456;BME280;6800;50.940;6.940;2023-09-30T14:25:13;101770.84;;;26.62;33.53
13456;BME280;6800;50.940;6.940;2023-09-30T14:29:14;101777.03;;;26.54;33.27
13456;BME280;6800;50.940;6.940;2023-09-30T14:33:16;101776.81;;;26.32;34.20
13456;BME280;6800;50.940;6.940;2023-09-30T14:37:17;101767.09;;;26.30;34.41
13456;BME280;6800;50.940;6.940;2023-09-30T14:41:19;101770.81;;;26.46;34.30
13456;BME280;6800;50.940;6.940;2023-09-30T14:45:20;101771.09;;;26.26;34.53
13456;BME280;6800;50.940;6.940;2023-09-30T14:49:23;101774.06;;;26.23;34.52
13456;BME280;6800;50.940;6.940;2023-09-30T14:53:24;101773.94;;;26.25;34.12
13456;BME280;6800;50.940;6.940;2023-09-30T14:57:26;101768.09;;;26.29;34.71
13456;BME280;6800;50.940;6.940;2023-09-30T15:01:27;101771.66;;;26.38;34.94
13456;BME280;6800;50.940;6.940;2023-09-30T15:05:28;101761.22;;;26.27;35.26
13456;BME280;6800;50.940;6.940;2023-09-30T15:09:30;101757.53;;;26.28;35.20
13456;BME280;6800;50.940;6.940;2023-09-30T15:13:31;101757.78;;;26.09;35.47
13456;BME280;6800;50.940;6.940;2023-09-30T15:17:33;101752.81;;;25.88;36.22
13456;BME280;6800;50.940;6.940;2023-09-30T15:21:35;101730.72;;;26.12;36.01
13456;BME280;6800;50.940;6.940;2023-09-30T15:25:43;101727.28;;;26.02;35.77
13456;BME280;6800;50.940;6.940;2023-09-30T15:29:45;101734.22;;;25.79;36.55
13456;BME280;6800;50.940;6.940;2023-09-30T15:33:46;101732.91;;;25.83;35.93
13456;BME280;6800;50.940;6.940;2023-09-30T15:37:48;101746.13;;;25.41;36.20
13456;BME280;6800;50.940;6.940;2023-09-30T15:41:49;101749.38;;;25.70;35.96
13456;BME280;6800;50.940;6.940;2023-09-30T15:45:51;101747.91;;;25.50;35.98
13456;BME280;6800;50.940;6.940;2023-09-30T15:49:52;101740.22;;;25.47;36.35
13456;BME280;6800;50.940;6.940;2023-09-30T15:53:54;101753.34;;;25.40;36.62
13456;BME280;6800;50.940;6.940;2023-09-30T15:57:57;101752.19;;;25.43;37.26
13456;BME280;6800;50.940;6.940;2023-09-30T16:01:59;101739.50;;;25.45;37.10
13456;BME280;6800;50.940;6.940;2023-09-30T16:06:04;101744.78;;;25.37;37.08
13456;BME280;6800;50.940;6.940;2023-09-30T16:10:06;101756.66;;;25.17;37.13
13456;BME280;6800;50.940;6.940;2023-09-30T16:14:08;101751.75;;;25.30;37.34
13456;BME280;6800;50.940;6.940;2023-09-30T16:18:09;101746.19;;;25.23;37.21
13456;BME280;6800;50.940;6.940;2023-09-30T16:22:11;101744.22;;;25.08;37.39
13456;BME280;6800;50.940;6.940;2023-09-30T16:26:13;101746.91;;;25.08;37.66
13456;BME280;6800;50.940;6.940;2023-09-30T16:30:15;101742.19;;;24.84;37.91
13456;BME280;6800;50.940;6.940;2023-09-30T16:34:17;101746.31;;;24.78;38.53
13456;BME280;6800;50.940;6.940;2023-09-30T16:38:19;101747.69;;;24.83;39.54
13456;BME280;6800;50.940;6.940;2023-09-30T16:42:25;101744.44;;;24.61;40.51
13456;BME280;6800;50.940;6.940;2023-09-30T16:46:27;101749.84;;;24.52;40.93
13456;BME280;6800;50.940;6.940;2023-09-30T16:50:28;101750.88;;;24.41;41.18
13456;BME280;6800;50.940;6.940;2023-09-30T16:54:30;101752.19;;;24.37;41.69
13456;BME280;6800;50.940;6.940;2023-09-30T16:58:31;101745.00;;;24.38;41.22
13456;BME280;6800;50.940;6.940;2023-09-30T17:02:32;101754.31;;;24.07;42.45
13456;BME280;6800;50.940;6.940;2023-09-30T17:06:34;101754.94;;;24.18;42.29
13456;BME280;6800;50.940;6.940;2023-09-30T17:10:35;101766.13;;;24.04;42.36
13456;BME280;6800;50.940;6.940;2023-09-30T17:14:37;101768.22;;;24.00;42.61
13456;BME280;6800;50.940;6.940;2023-09-30T17:18:38;101763.91;;;23.90;43.28
13456;BME280;6800;50.940;6.940;2023-09-30T17:22:40;101760.53;;;23.88;43.65
13456;BME280;6800;50.940;6.940;2023-09-30T17:26:42;101766.34;;;23.74;44.10
13456;BME280;6800;50.940;6.940;2023-09-30T17:30:43;101762.28;;;23.79;43.62
13456;BME280;6800;50.940;6.940;2023-09-30T17:34:45;101776.31;;;23.72;44.30
13456;BME280;6800;50.940;6.940;2023-09-30T17:38:46;101770.00;;;23.73;44.31
13456;BME280;6800;50.940;6.940;2023-09-30T17:42:49;101771.56;;;23.66;44.55
13456;BME280;6800;50.940;6.940;2023-09-30T17:46:51;101767.94;;;23.48;45.40
13456;BME280;6800;50.940;6.940;2023-09-30T17:50:52;101780.41;;;23.57;44.72
13456;BME280;6800;50.940;6.940;2023-09-30T17:54:54;101779.19;;;23.32;45.64
13456;BME280;6800;50.940;6.940;2023-09-30T17:58:55;101779.47;;;23.39;45.88
13456;BME280;6800;50.940;6.940;2023-09-30T18:02:57;101774.00;;;23.31;46.12
13456;BME280;6800;50.940;6.940;2023-09-30T18:06:59;101781.28;;;23.28;46.14
13456;BME280;6800;50.940;6.940;2023-09-30T18:11:01;101788.56;;;23.26;46.13
13456;BME280;6800;50.940;6.940;2023-09-30T18:15:03;101777.50;;;23.21;45.85
13456;BME280;6800;50.940;6.940;2023-09-30T18:19:04;101781.16;;;23.01;46.92
13456;BME280;6800;50.940;6.940;2023-09-30T18:23:06;101777.50;;;22.93;46.99
13456;BME280;6800;50.940;6.940;2023-09-30T18:27:08;101782.28;;;22.89;47.11
13456;BME280;6800;50.940;6.940;2023-09-30T18:31:09;101780.44;;;22.80;47.34
13456;BME280;6800;50.940;6.940;2023-09-30T18:35:12;101778.06;;;22.77;47.89
13456;BME280;6800;50.940;6.940;2023-09-30T18:39:14;101778.31;;;22.74;48.37
13456;BME280;6800;50.940;6.940;2023-09-30T18:43:26;101777.75;;;22.61;48.67
13456;BME280;6800;50.940;6.940;2023-09-30T18:47:30;101759.84;;;22.73;48.63
13456;BME280;6800;50.940;6.940;2023-09-30T18:51:31;101751.56;;;22.66;48.83
13456;BME280;6800;50.940;6.940;2023-09-30T18:55:41;101763.19;;;22.75;48.74
13456;BME280;6800;50.940;6.940;2023-09-30T18:59:42;101769.75;;;22.61;49.27
13456;BME280;6800;50.940;6.940;2023-09-30T19:03:46;101770.97;;;22.57;49.32
13456;BME280;6800;50.940;6.940;2023-09-30T19:07:48;101775.03;;;22.51;49.54
13456;BME280;6800;50.940;6.940;2023-09-30T19:11:49;101775.31;;;22.48;49.38
13456;BME280;6800;50.940;6.940;2023-09-30T19:15:50;101765.38;;;22.50;49.48
13456;BME280;6800;50.940;6.940;2023-09-30T19:19:53;101765.78;;;22.46;49.50
13456;BME280;6800;50.940;6.940;2023-09-30T19:23:54;101780.31;;;22.32;49.82
13456;BME280;6800;50.940;6.940;2023-09-30T19:27:55;101779.31;;;22.24;50.50
13456;BME280;6800;50.940;6.940;2023-09-30T19:31:58;101768.13;;;22.30;50.39
13456;BME280;6800;50.940;6.940;2023-09-30T19:36:08;101762.47;;;22.14;50.87
13456;BME280;6800;50.940;6.940;2023-09-30T19:40:10;101768.38;;;22.17;50.79
13456;BME280;6800;50.940;6.940;2023-09-30T19:44:13;101765.94;;;22.05;51.48
13456;BME280;6800;50.940;6.940;2023-09-30T19:48:14;101763.69;;;22.00;51.57
13456;BME280;6800;50.940;6.940;2023-09-30T19:52:16;101767.47;;;21.77;51.70
13456;BME280;6800;50.940;6.940;2023-09-30T19:56:17;101751.31;;;21.90;51.47
13456;BME280;6800;50.940;6.940;2023-09-30T20:00:19;101757.88;;;21.86;51.38
13456;BME280;6800;50.940;6.940;2023-09-30T20:04:20;101772.63;;;21.99;51.41
13456;BME280;6800;50.940;6.940;2023-09-30T20:08:22;101770.81;;;22.00;51.30
13456;BME280;6800;50.940;6.940;2023-09-30T20:12:23;101772.50;;;22.01;51.03
13456;BME280;6800;50.940;6.940;2023-09-30T20:16:25;101770.81;;;22.00;50.77
13456;BME280;6800;50.940;6.940;2023-09-30T20:20:26;101764.06;;;21.96;51.34
13456;BME280;6800;50.940;6.940;2023-09-30T20:24:28;101757.09;;;21.95;51.48
13456;BME280;6800;50.940;6.940;2023-09-30T20:28:29;101754.22;;;21.87;51.77
13456;BME280;6800;50.940;6.940;2023-09-30T20:32:31;101748.00;;;21.76;52.07
13456;BME280;6800;50.940;6.940;2023-09-30T20:36:33;101756.75;;;21.67;52.14
13456;BME280;6800;50.940;6.940;2023-09-30T20:40:38;101748.59;;;21.59;52.86
13456;BME280;6800;50.940;6.940;2023-09-30T20:44:42;101751.41;;;21.58;52.64
13456;BME280;6800;50.940;6.940;2023-09-30T20:48:44;101756.88;;;21.56;52.81
13456;BME280;6800;50.940;6.940;2023-09-30T20:52:50;101757.00;;;21.34;53.54
13456;BME280;6800;50.940;6.940;2023-09-30T20:56:54;101746.13;;;21.37;53.22
13456;BME280;6800;50.940;6.940;2023-09-30T21:00:56;101755.81;;;21.27;53.62
13456;BME280;6800;50.940;6.940;2023-09-30T21:04:59;101758.59;;;21.26;53.92
13456;BME280;6800;50.940;6.940;2023-09-30T21:09:00;101760.94;;;21.19;54.08
13456;BME280;6800;50.940;6.940;2023-09-30T21:13:02;101756.09;;;21.04;54.42
13456;BME280;6800;50.940;6.940;2023-09-30T21:17:06;101776.19;;;21.06;54.64
13456;BME280;6800;50.940;6.940;2023-09-30T21:21:10;101776.28;;;21.16;54.48
13456;BME280;6800;50.940;6.940;2023-09-30T21:25:12;101774.03;;;21.11;54.46
13456;BME280;6800;50.940;6.940;2023-09-30T21:29:14;101774.41;;;21.07;54.67
13456;BME280;6800;50.940;6.940;2023-09-30T21:33:16;101770.78;;;21.08;54.86
13456;BME280;6800;50.940;6.940;2023-09-30T21:37:17;101770.94;;;20.95;55.61